sensor_id;sensor_type;location;lat;lon;timestamp;pressure;altitude;pressure_sealevel;temperature;humidity
29733;BME280;16643;43.158;25.302;2022-10-16T00:01:29;98794.63;;;10.00;83.02
29733;BME280;16643;43.158;25.302;2022-10-16T00:03:56;98772.38;;;9.83;83.03
29733;BME280;16643;43.158;25.302;2022-10-16T00:06:23;98794.09;;;9.78;83.42
29733;BME280;16643;43.158;25.302;2022-10-16T00:08:49;98774.59;;;9.53;83.65
29733;BME280;16643;43.158;25.302;2022-10-16T00:11:28;98798.00;;;9.50;84.47
29733;BME280;16643;43.158;25.302;2022-10-16T00:13:59;98789.41;;;9.46;84.50
29733;BME280;16643;43.158;25.302;2022-10-16T00:16:27;98781.72;;;9.40;84.58
29733;BME280;16643;43.158;25.302;2022-10-16T00:18:53;98774.97;;;9.27;85.08
29733;BME280;16643;43.158;25.302;2022-10-16T00:21:23;98814.31;;;9.58;84.92
29733;BME280;16643;43.158;25.302;2022-10-16T00:23:51;98810.59;;;9.75;84.53
29733;BME280;16643;43.158;25.302;2022-10-16T00:26:18;98790.88;;;9.62;84.38
29733;BME280;16643;43.158;25.302;2022-10-16T00:28:51;98791.19;;;9.41;84.61
29733;BME280;16643;43.158;25.302;2022-10-16T00:31:18;98816.22;;;9.46;85.25
29733;BME280;16643;43.158;25.302;2022-10-16T00:33:44;98821.28;;;9.56;85.64
29733;BME280;16643;43.158;25.302;2022-10-16T00:36:12;98801.13;;;9.12;86.20
29733;BME280;16643;43.158;25.302;2022-10-16T00:38:38;98803.63;;;9.19;86.51
29733;BME280;16643;43.158;25.302;2022-10-16T00:41:06;98799.25;;;9.23;86.55
29733;BME280;16643;43.158;25.302;2022-10-16T00:43:42;98820.72;;;9.34;86.75
29733;BME280;16643;43.158;25.302;2022-10-16T00:49:11;98830.78;;;9.57;85.99
29733;BME280;16643;43.158;25.302;2022-10-16T00:51:45;98825.72;;;9.48;85.96
29733;BME280;16643;43.158;25.302;2022-10-16T00:54:16;98817.13;;;9.44;85.79
29733;BME280;16643;43.158;25.302;2022-10-16T00:56:43;98811.22;;;9.33;85.54
29733;BME280;16643;43.158;25.302;2022-10-16T00:59:26;98823.91;;;9.53;85.63
29733;BME280;16643;43.158;25.302;2022-10-16T01:01:53;98804.88;;;9.52;86.28
29733;BME280;16643;43.158;25.302;2022-10-16T01:04:19;98811.94;;;9.42;85.20
29733;BME280;16643;43.158;25.302;2022-10-16T01:09:26;98833.50;;;9.48;85.11
29733;BME280;16643;43.158;25.302;2022-10-16T01:12:04;98830.00;;;9.50;85.50
29733;BME280;16643;43.158;25.302;2022-10-16T01:14:47;98815.59;;;9.28;86.10
29733;BME280;16643;43.158;25.302;2022-10-16T01:17:43;98828.50;;;9.34;86.29
29733;BME280;16643;43.158;25.302;2022-10-16T01:20:27;98836.91;;;9.50;85.61
29733;BME280;16643;43.158;25.302;2022-10-16T01:22:59;98839.50;;;9.51;85.39
29733;BME280;16643;43.158;25.302;2022-10-16T01:28:27;98824.91;;;9.42;85.17
29733;BME280;16643;43.158;25.302;2022-10-16T01:30:58;98834.47;;;9.39;85.63
29733;BME280;16643;43.158;25.302;2022-10-16T01:33:34;98815.59;;;9.29;85.91
29733;BME280;16643;43.158;25.302;2022-10-16T01:36:10;98838.06;;;9.29;86.17
29733;BME280;16643;43.158;25.302;2022-10-16T01:38:39;98831.22;;;9.25;85.82
29733;BME280;16643;43.158;25.302;2022-10-16T01:41:18;98832.09;;;9.25;85.67
29733;BME280;16643;43.158;25.302;2022-10-16T01:44:02;98830.16;;;9.38;86.24
29733;BME280;16643;43.158;25.302;2022-10-16T01:46:30;98838.78;;;9.41;85.74
29733;BME280;16643;43.158;25.302;2022-10-16T01:48:57;98828.41;;;9.38;86.18
29733;BME280;16643;43.158;25.302;2022-10-16T01:51:25;98829.41;;;9.30;86.64
29733;BME280;16643;43.158;25.302;2022-10-16T01:53:55;98848.38;;;9.35;86.28
29733;BME280;16643;43.158;25.302;2022-10-16T01:56:25;98827.25;;;8.95;86.56
29733;BME280;16643;43.158;25.302;2022-10-16T02:01:27;98848.75;;;9.03;87.10
29733;BME280;16643;43.158;25.302;2022-10-16T02:03:57;98844.41;;;9.06;86.86
29733;BME280;16643;43.158;25.302;2022-10-16T02:06:24;98828.28;;;8.82;86.68
29733;BME280;16643;43.158;25.302;2022-10-16T02:08:51;98833.28;;;8.98;86.75
29733;BME280;16643;43.158;25.302;2022-10-16T02:11:16;98820.47;;;8.85;86.55
29733;BME280;16643;43.158;25.302;2022-10-16T02:13:50;98840.38;;;8.81;87.24
29733;BME280;16643;43.158;25.302;2022-10-16T02:16:16;98841.06;;;8.97;86.57
29733;BME280;16643;43.158;25.302;2022-10-16T02:18:43;98845.44;;;8.92;86.81
29733;BME280;16643;43.158;25.302;2022-10-16T02:21:40;98855.03;;;8.84;87.23
29733;BME280;16643;43.158;25.302;2022-10-16T02:27:03;98837.72;;;8.90;87.67
29733;BME280;16643;43.158;25.302;2022-10-16T02:29:32;98848.03;;;8.92;87.83
29733;BME280;16643;43.158;25.302;2022-10-16T02:32:04;98862.78;;;8.87;88.30
29733;BME280;16643;43.158;25.302;2022-10-16T02:34:31;98859.31;;;8.89;88.39
29733;BME280;16643;43.158;25.302;2022-10-16T02:36:59;98850.72;;;8.83;88.37
29733;BME280;16643;43.158;25.302;2022-10-16T02:39:27;98861.81;;;8.98;89.21
29733;BME280;16643;43.158;25.302;2022-10-16T02:41:53;98866.97;;;9.00;88.49
29733;BME280;16643;43.158;25.302;2022-10-16T02:44:19;98840.25;;;8.92;88.34
29733;BME280;16643;43.158;25.302;2022-10-16T02:46:44;98866.97;;;9.00;88.32
29733;BME280;16643;43.158;25.302;2022-10-16T02:49:10;98866.03;;;9.05;87.47
29733;BME280;16643;43.158;25.302;2022-10-16T02:51:36;98867.75;;;9.06;87.74
29733;BME280;16643;43.158;25.302;2022-10-16T02:54:02;98854.19;;;8.83;88.33
29733;BME280;16643;43.158;25.302;2022-10-16T02:56:28;98884.38;;;8.90;88.50
29733;BME280;16643;43.158;25.302;2022-10-16T02:58:58;98859.59;;;8.62;88.25
29733;BME280;16643;43.158;25.302;2022-10-16T03:01:24;98867.28;;;8.69;88.57
29733;BME280;16643;43.158;25.302;2022-10-16T03:03:50;98869.84;;;8.76;88.54
29733;BME280;16643;43.158;25.302;2022-10-16T03:06:15;98893.19;;;8.69;88.23
29733;BME280;16643;43.158;25.302;2022-10-16T03:08:41;98861.56;;;8.37;88.84
29733;BME280;16643;43.158;25.302;2022-10-16T03:11:07;98867.59;;;8.41;89.04
29733;BME280;16643;43.158;25.302;2022-10-16T03:13:33;98870.97;;;8.47;89.34
29733;BME280;16643;43.158;25.302;2022-10-16T03:15:58;98884.78;;;8.48;89.20
29733;BME280;16643;43.158;25.302;2022-10-16T03:18:24;98881.31;;;8.50;89.73
29733;BME280;16643;43.158;25.302;2022-10-16T03:20:50;98891.66;;;8.52;89.61
29733;BME280;16643;43.158;25.302;2022-10-16T03:23:15;98877.09;;;8.37;89.28
29733;BME280;16643;43.158;25.302;2022-10-16T03:25:41;98861.56;;;8.38;89.47
29733;BME280;16643;43.158;25.302;2022-10-16T03:28:07;98883.97;;;8.44;90.17
29733;BME280;16643;43.158;25.302;2022-10-16T03:30:32;98883.91;;;8.47;90.08
29733;BME280;16643;43.158;25.302;2022-10-16T03:32:58;98894.22;;;8.55;89.97
29733;BME280;16643;43.158;25.302;2022-10-16T03:35:24;98869.31;;;8.42;89.88
29733;BME280;16643;43.158;25.302;2022-10-16T03:37:50;98894.31;;;8.46;89.31
29733;BME280;16643;43.158;25.302;2022-10-16T03:40:16;98910.75;;;8.43;89.17
29733;BME280;16643;43.158;25.302;2022-10-16T03:42:42;98885.88;;;8.16;90.26
29733;BME280;16643;43.158;25.302;2022-10-16T03:45:09;98896.13;;;8.30;90.84
29733;BME280;16643;43.158;25.302;2022-10-16T03:47:35;98885.03;;;8.14;91.03
29733;BME280;16643;43.158;25.302;2022-10-16T03:50:01;98909.06;;;8.36;91.03
29733;BME280;16643;43.158;25.302;2022-10-16T03:52:27;98880.66;;;8.22;91.20
29733;BME280;16643;43.158;25.302;2022-10-16T03:54:52;98888.38;;;8.34;91.05
29733;BME280;16643;43.158;25.302;2022-10-16T03:57:18;98872.06;;;8.16;92.02
29733;BME280;16643;43.158;25.302;2022-10-16T03:59:44;98892.88;;;8.05;92.43
29733;BME280;16643;43.158;25.302;2022-10-16T04:02:10;98896.16;;;8.27;91.86
29733;BME280;16643;43.158;25.302;2022-10-16T04:04:35;98887.44;;;8.43;92.01
29733;BME280;16643;43.158;25.302;2022-10-16T04:07:01;98884.81;;;8.46;91.99
29733;BME280;16643;43.158;25.302;2022-10-16T04:09:27;98888.31;;;8.39;91.37
29733;BME280;16643;43.158;25.302;2022-10-16T04:11:52;98885.88;;;8.16;91.30
29733;BME280;16643;43.158;25.302;2022-10-16T04:14:18;98901.34;;;8.33;91.57
29733;BME280;16643;43.158;25.302;2022-10-16T04:16:44;98895.53;;;7.97;91.87
29733;BME280;16643;43.158;25.302;2022-10-16T04:19:10;98902.44;;;7.98;92.23
29733;BME280;16643;43.158;25.302;2022-10-16T04:21:36;98900.78;;;7.88;92.93
29733;BME280;16643;43.158;25.302;2022-10-16T04:24:02;98891.25;;;7.92;93.10
29733;BME280;16643;43.158;25.302;2022-10-16T04:26:28;98878.34;;;7.89;92.71
29733;BME280;16643;43.158;25.302;2022-10-16T04:28:54;98887.75;;;8.00;93.54
29733;BME280;16643;43.158;25.302;2022-10-16T04:31:20;98895.69;;;7.73;94.18
29733;BME280;16643;43.158;25.302;2022-10-16T04:33:45;98889.66;;;7.73;94.32
29733;BME280;16643;43.158;25.302;2022-10-16T04:36:11;98910.19;;;7.97;94.49
29733;BME280;16643;43.158;25.302;2022-10-16T04:38:37;98904.94;;;8.09;94.79
29733;BME280;16643;43.158;25.302;2022-10-16T04:41:05;98915.31;;;8.06;95.09
29733;BME280;16643;43.158;25.302;2022-10-16T04:43:31;98924.94;;;7.89;95.29
29733;BME280;16643;43.158;25.302;2022-10-16T04:45:57;98917.09;;;7.99;94.77
29733;BME280;16643;43.158;25.302;2022-10-16T04:48:22;98912.72;;;8.03;94.63
29733;BME280;16643;43.158;25.302;2022-10-16T04:50:48;98906.75;;;7.98;94.85
29733;BME280;16643;43.158;25.302;2022-10-16T04:53:14;98941.97;;;8.22;94.15
29733;BME280;16643;43.158;25.302;2022-10-16T04:55:41;98928.84;;;8.46;94.80
29733;BME280;16643;43.158;25.302;2022-10-16T04:58:06;98922.91;;;8.35;94.67
29733;BME280;16643;43.158;25.302;2022-10-16T05:00:32;98916.09;;;8.17;94.45
29733;BME280;16643;43.158;25.302;2022-10-16T05:02:58;98912.66;;;8.14;95.00
29733;BME280;16643;43.158;25.302;2022-10-16T05:05:26;98928.00;;;8.43;95.08
29733;BME280;16643;43.158;25.302;2022-10-16T05:07:52;98940.09;;;8.44;94.64
29733;BME280;16643;43.158;25.302;2022-10-16T05:10:17;98922.91;;;8.30;94.37
29733;BME280;16643;43.158;25.302;2022-10-16T05:12:43;98948.81;;;8.32;94.41
29733;BME280;16643;43.158;25.302;2022-10-16T05:15:09;98927.28;;;8.22;94.16
29733;BME280;16643;43.158;25.302;2022-10-16T05:17:35;98934.13;;;8.29;94.09
29733;BME280;16643;43.158;25.302;2022-10-16T05:20:01;98942.72;;;8.36;94.34
29733;BME280;16643;43.158;25.302;2022-10-16T05:22:27;98943.44;;;8.56;94.30
29733;BME280;16643;43.158;25.302;2022-10-16T05:24:52;98935.63;;;8.58;93.95
29733;BME280;16643;43.158;25.302;2022-10-16T05:27:18;98942.41;;;8.76;94.79
29733;BME280;16643;43.158;25.302;2022-10-16T05:29:48;98961.22;;;8.93;94.11
29733;BME280;16643;43.158;25.302;2022-10-16T05:32:14;98966.22;;;9.13;93.70
29733;BME280;16643;43.158;25.302;2022-10-16T05:34:41;98962.69;;;9.18;94.13
29733;BME280;16643;43.158;25.302;2022-10-16T05:37:06;98949.63;;;9.27;93.70
29733;BME280;16643;43.158;25.302;2022-10-16T05:39:32;75642.78;;;-142.82;93.70
29733;BME280;16643;43.158;25.302;2022-10-16T05:41:58;98972.78;;;9.47;94.25
29733;BME280;16643;43.158;25.302;2022-10-16T05:44:24;98955.50;;;9.43;93.59
29733;BME280;16643;43.158;25.302;2022-10-16T05:46:49;98963.19;;;9.52;93.35
29733;BME280;16643;43.158;25.302;2022-10-16T05:49:15;98969.19;;;9.57;93.61
29733;BME280;16643;43.158;25.302;2022-10-16T05:51:41;98979.44;;;9.66;92.75
29733;BME280;16643;43.158;25.302;2022-10-16T05:54:07;98976.69;;;9.78;92.98
29733;BME280;16643;43.158;25.302;2022-10-16T05:56:33;98984.38;;;9.88;92.63
29733;BME280;16643;43.158;25.302;2022-10-16T05:58:58;99001.50;;;10.01;92.31
29733;BME280;16643;43.158;25.302;2022-10-16T06:01:24;99003.13;;;10.08;92.55
29733;BME280;16643;43.158;25.302;2022-10-16T06:03:51;98991.00;;;10.08;91.91
29733;BME280;16643;43.158;25.302;2022-10-16T06:06:21;99017.59;;;10.29;91.92
29733;BME280;16643;43.158;25.302;2022-10-16T06:08:49;98989.88;;;10.29;91.17
29733;BME280;16643;43.158;25.302;2022-10-16T06:11:25;98982.91;;;10.33;90.89
29733;BME280;16643;43.158;25.302;2022-10-16T06:13:52;99020.69;;;10.53;90.51
29733;BME280;16643;43.158;25.302;2022-10-16T06:16:18;99017.16;;;10.59;90.55
29733;BME280;16643;43.158;25.302;2022-10-16T06:18:45;99001.38;;;10.70;89.82
29733;BME280;16643;43.158;25.302;2022-10-16T06:21:17;99003.66;;;10.88;89.21
29733;BME280;16643;43.158;25.302;2022-10-16T06:23:43;98998.41;;;10.91;88.17
29733;BME280;16643;43.158;25.302;2022-10-16T06:26:14;99030.28;;;11.05;89.37
29733;BME280;16643;43.158;25.302;2022-10-16T06:28:40;99035.97;;;11.27;88.46
29733;BME280;16643;43.158;25.302;2022-10-16T06:31:08;98992.78;;;11.17;87.91
29733;BME280;16643;43.158;25.302;2022-10-16T06:33:34;99025.13;;;11.50;86.57
29733;BME280;16643;43.158;25.302;2022-10-16T06:38:27;99057.47;;;11.84;85.10
29733;BME280;16643;43.158;25.302;2022-10-16T06:40:53;99049.38;;;11.96;85.29
29733;BME280;16643;43.158;25.302;2022-10-16T06:43:19;99042.75;;;11.82;84.64
29733;BME280;16643;43.158;25.302;2022-10-16T06:45:55;99058.84;;;12.00;85.93
29733;BME280;16643;43.158;25.302;2022-10-16T06:48:21;99040.53;;;12.05;85.79
29733;BME280;16643;43.158;25.302;2022-10-16T06:50:57;99055.66;;;12.29;84.28
29733;BME280;16643;43.158;25.302;2022-10-16T06:53:23;99046.75;;;12.40;84.35
29733;BME280;16643;43.158;25.302;2022-10-16T06:55:49;99048.91;;;12.58;84.31
29733;BME280;16643;43.158;25.302;2022-10-16T06:58:15;99050.28;;;12.74;83.06
29733;BME280;16643;43.158;25.302;2022-10-16T07:00:41;99055.00;;;12.95;82.26
29733;BME280;16643;43.158;25.302;2022-10-16T07:03:06;99062.50;;;13.09;81.08
29733;BME280;16643;43.158;25.302;2022-10-16T07:05:37;99069.03;;;13.27;79.55
29733;BME280;16643;43.158;25.302;2022-10-16T07:08:03;99071.25;;;13.42;78.73
29733;BME280;16643;43.158;25.302;2022-10-16T07:10:31;99064.75;;;13.57;77.62
29733;BME280;16643;43.158;25.302;2022-10-16T07:12:57;99068.94;;;13.64;78.15
29733;BME280;16643;43.158;25.302;2022-10-16T07:15:24;99084.03;;;13.85;77.77
29733;BME280;16643;43.158;25.302;2022-10-16T07:17:50;99020.09;;;13.66;77.00
29733;BME280;16643;43.158;25.302;2022-10-16T07:20:15;99071.38;;;14.01;75.83
29733;BME280;16643;43.158;25.302;2022-10-16T07:22:41;99085.50;;;14.25;75.18
29733;BME280;16643;43.158;25.302;2022-10-16T07:25:07;99064.41;;;14.31;73.52
29733;BME280;16643;43.158;25.302;2022-10-16T07:27:33;99089.72;;;14.60;72.65
29733;BME280;16643;43.158;25.302;2022-10-16T07:29:59;99089.81;;;14.57;70.24
29733;BME280;16643;43.158;25.302;2022-10-16T07:32:25;99079.94;;;14.66;70.50
29733;BME280;16643;43.158;25.302;2022-10-16T07:34:51;99074.47;;;14.74;69.81
29733;BME280;16643;43.158;25.302;2022-10-16T07:37:17;99081.63;;;14.95;69.77
29733;BME280;16643;43.158;25.302;2022-10-16T07:39:43;99074.53;;;14.99;69.75
29733;BME280;16643;43.158;25.302;2022-10-16T07:42:08;99090.50;;;15.17;68.10
29733;BME280;16643;43.158;25.302;2022-10-16T07:44:34;99050.63;;;15.09;68.00
29733;BME280;16643;43.158;25.302;2022-10-16T07:47:00;99087.03;;;15.43;63.56
29733;BME280;16643;43.158;25.302;2022-10-16T07:49:25;99094.81;;;15.71;61.07
29733;BME280;16643;43.158;25.302;2022-10-16T07:51:51;99068.34;;;15.79;60.37
29733;BME280;16643;43.158;25.302;2022-10-16T07:54:17;99079.50;;;15.84;58.89
29733;BME280;16643;43.158;25.302;2022-10-16T07:56:42;99083.00;;;15.84;59.69
29733;BME280;16643;43.158;25.302;2022-10-16T07:59:08;99093.34;;;16.12;58.31
29733;BME280;16643;43.158;25.302;2022-10-16T08:01:34;99095.31;;;16.06;59.33
29733;BME280;16643;43.158;25.302;2022-10-16T08:03:59;99079.75;;;15.78;58.66
29733;BME280;16643;43.158;25.302;2022-10-16T08:06:25;99087.22;;;15.64;59.81
29733;BME280;16643;43.158;25.302;2022-10-16T08:08:51;99052.19;;;15.40;57.83
29733;BME280;16643;43.158;25.302;2022-10-16T08:11:17;99104.50;;;15.94;58.52
29733;BME280;16643;43.158;25.302;2022-10-16T08:13:43;99108.06;;;16.16;58.21
29733;BME280;16643;43.158;25.302;2022-10-16T08:16:08;99092.78;;;16.27;59.42
29733;BME280;16643;43.158;25.302;2022-10-16T08:18:36;99098.88;;;16.51;56.50
29733;BME280;16643;43.158;25.302;2022-10-16T08:21:02;99116.53;;;16.48;56.16
29733;BME280;16643;43.158;25.302;2022-10-16T08:23:28;99107.59;;;16.28;57.47
29733;BME280;16643;43.158;25.302;2022-10-16T08:25:55;99114.72;;;16.48;55.73
29733;BME280;16643;43.158;25.302;2022-10-16T08:28:22;99117.13;;;16.31;55.02
29733;BME280;16643;43.158;25.302;2022-10-16T08:30:48;99092.19;;;16.19;54.63
29733;BME280;16643;43.158;25.302;2022-10-16T08:33:14;99109.25;;;16.31;56.11
29733;BME280;16643;43.158;25.302;2022-10-16T08:35:39;99089.34;;;16.25;55.53
29733;BME280;16643;43.158;25.302;2022-10-16T08:38:06;99107.44;;;16.56;55.66
29733;BME280;16643;43.158;25.302;2022-10-16T08:40:33;99102.78;;;16.64;55.05
29733;BME280;16643;43.158;25.302;2022-10-16T08:51:36;99105.78;;;16.54;55.98
29733;BME280;16643;43.158;25.302;2022-10-16T08:54:05;99118.97;;;16.29;54.70
29733;BME280;16643;43.158;25.302;2022-10-16T08:56:32;99108.50;;;16.51;55.70
29733;BME280;16643;43.158;25.302;2022-10-16T08:58:59;99117.13;;;16.78;53.75
29733;BME280;16643;43.158;25.302;2022-10-16T09:01:42;99129.00;;;16.41;55.33
29733;BME280;16643;43.158;25.302;2022-10-16T09:09:49;99118.13;;;16.97;52.52
29733;BME280;16643;43.158;25.302;2022-10-16T09:12:45;99122.44;;;16.53;52.34
29733;BME280;16643;43.158;25.302;2022-10-16T09:15:34;99126.81;;;16.52;54.19
29733;BME280;16643;43.158;25.302;2022-10-16T09:18:25;99130.25;;;16.54;53.90
29733;BME280;16643;43.158;25.302;2022-10-16T09:21:12;99121.28;;;16.83;52.85
29733;BME280;16643;43.158;25.302;2022-10-16T09:23:39;99110.00;;;16.81;51.61
29733;BME280;16643;43.158;25.302;2022-10-16T09:26:10;99123.19;;;16.80;52.21
29733;BME280;16643;43.158;25.302;2022-10-16T09:28:36;99119.41;;;17.09;51.99
29733;BME280;16643;43.158;25.302;2022-10-16T09:31:02;99107.13;;;17.09;51.85
29733;BME280;16643;43.158;25.302;2022-10-16T09:33:33;99126.97;;;17.38;52.84
29733;BME280;16643;43.158;25.302;2022-10-16T09:35:59;99114.66;;;17.60;49.72
29733;BME280;16643;43.158;25.302;2022-10-16T09:38:28;99121.97;;;17.52;49.80
29733;BME280;16643;43.158;25.302;2022-10-16T09:40:56;99102.19;;;17.65;51.10
29733;BME280;16643;43.158;25.302;2022-10-16T09:43:23;99123.66;;;17.95;49.70
29733;BME280;16643;43.158;25.302;2022-10-16T09:45:58;99096.25;;;17.60;50.12
29733;BME280;16643;43.158;25.302;2022-10-16T09:48:28;99115.72;;;17.97;49.91
29733;BME280;16643;43.158;25.302;2022-10-16T09:51:01;99098.69;;;17.85;50.29
29733;BME280;16643;43.158;25.302;2022-10-16T09:53:41;99115.91;;;18.31;49.67
29733;BME280;16643;43.158;25.302;2022-10-16T09:56:07;99114.94;;;18.52;48.28
29733;BME280;16643;43.158;25.302;2022-10-16T09:58:35;99098.22;;;17.96;46.93
29733;BME280;16643;43.158;25.302;2022-10-16T10:01:00;99110.56;;;18.14;48.44
29733;BME280;16643;43.158;25.302;2022-10-16T10:03:41;99087.69;;;18.16;48.17
29733;BME280;16643;43.158;25.302;2022-10-16T10:06:28;99117.00;;;18.27;48.15
29733;BME280;16643;43.158;25.302;2022-10-16T10:08:56;99106.69;;;18.41;47.40
29733;BME280;16643;43.158;25.302;2022-10-16T10:14:31;99099.25;;;18.12;46.52
29733;BME280;16643;43.158;25.302;2022-10-16T10:17:10;99110.41;;;18.37;46.86
29733;BME280;16643;43.158;25.302;2022-10-16T10:19:51;99104.34;;;17.34;48.66
29733;BME280;16643;43.158;25.302;2022-10-16T10:22:42;99107.44;;;17.86;49.05
29733;BME280;16643;43.158;25.302;2022-10-16T10:25:18;99099.56;;;18.25;48.55
29733;BME280;16643;43.158;25.302;2022-10-16T10:27:59;99101.16;;;18.47;48.10
29733;BME280;16643;43.158;25.302;2022-10-16T10:39:00;99085.28;;;18.68;48.13
29733;BME280;16643;43.158;25.302;2022-10-16T10:41:27;99088.75;;;19.06;47.30
29733;BME280;16643;43.158;25.302;2022-10-16T10:47:27;99080.06;;;19.04;45.31
29733;BME280;16643;43.158;25.302;2022-10-16T10:50:11;99071.63;;;19.32;46.13
29733;BME280;16643;43.158;25.302;2022-10-16T10:53:10;99074.28;;;18.60;46.31
29733;BME280;16643;43.158;25.302;2022-10-16T10:56:10;99062.91;;;18.20;45.15
29733;BME280;16643;43.158;25.302;2022-10-16T11:01:54;99048.41;;;18.11;46.26
29733;BME280;16643;43.158;25.302;2022-10-16T11:04:37;99059.81;;;18.49;47.29
29733;BME280;16643;43.158;25.302;2022-10-16T11:07:31;99073.13;;;18.84;46.58
29733;BME280;16643;43.158;25.302;2022-10-16T11:10:12;99057.38;;;18.82;46.07
29733;BME280;16643;43.158;25.302;2022-10-16T11:12:42;99057.03;;;19.07;45.99
29733;BME280;16643;43.158;25.302;2022-10-16T11:15:24;99059.13;;;19.35;44.72
29733;BME280;16643;43.158;25.302;2022-10-16T11:20:58;99067.22;;;19.67;44.69
29733;BME280;16643;43.158;25.302;2022-10-16T11:23:39;99067.47;;;19.62;44.89
29733;BME280;16643;43.158;25.302;2022-10-16T11:26:16;99068.38;;;19.27;44.78
29733;BME280;16643;43.158;25.302;2022-10-16T11:28:54;99066.94;;;19.02;44.38
29733;BME280;16643;43.158;25.302;2022-10-16T11:31:34;99062.63;;;19.18;43.64
29733;BME280;16643;43.158;25.302;2022-10-16T11:37:14;99060.38;;;19.45;44.73
29733;BME280;16643;43.158;25.302;2022-10-16T11:39:43;99064.19;;;19.40;44.75
29733;BME280;16643;43.158;25.302;2022-10-16T11:42:29;99056.13;;;18.90;44.60
29733;BME280;16643;43.158;25.302;2022-10-16T11:48:17;99037.81;;;18.69;45.38
29733;BME280;16643;43.158;25.302;2022-10-16T11:50:58;99049.81;;;19.11;45.62
29733;BME280;16643;43.158;25.302;2022-10-16T11:56:12;99054.16;;;18.57;46.45
29733;BME280;16643;43.158;25.302;2022-10-16T12:01:46;99037.72;;;19.07;46.19
29733;BME280;16643;43.158;25.302;2022-10-16T12:07:08;99040.25;;;19.08;44.54
29733;BME280;16643;43.158;25.302;2022-10-16T12:09:38;99065.97;;;19.39;45.63
29733;BME280;16643;43.158;25.302;2022-10-16T12:12:05;99064.91;;;19.61;44.98
29733;BME280;16643;43.158;25.302;2022-10-16T12:17:37;99056.88;;;19.10;43.84
29733;BME280;16643;43.158;25.302;2022-10-16T12:22:47;99054.22;;;19.10;43.68
29733;BME280;16643;43.158;25.302;2022-10-16T12:25:31;99058.03;;;19.05;43.27
29733;BME280;16643;43.158;25.302;2022-10-16T12:28:06;99061.59;;;19.21;42.97
29733;BME280;16643;43.158;25.302;2022-10-16T12:30:42;99061.84;;;19.34;42.76
29733;BME280;16643;43.158;25.302;2022-10-16T12:33:26;99046.72;;;19.20;42.13
29733;BME280;16643;43.158;25.302;2022-10-16T12:35:52;99054.47;;;19.23;43.55
29733;BME280;16643;43.158;25.302;2022-10-16T12:38:21;99059.16;;;19.18;42.03
29733;BME280;16643;43.158;25.302;2022-10-16T12:41:07;99064.41;;;19.18;42.11
29733;BME280;16643;43.158;25.302;2022-10-16T12:43:41;99075.22;;;18.95;42.64
29733;BME280;16643;43.158;25.302;2022-10-16T12:48:37;99051.06;;;18.68;43.50
29733;BME280;16643;43.158;25.302;2022-10-16T12:51:36;99069.00;;;18.60;43.24
29733;BME280;16643;43.158;25.302;2022-10-16T13:10:26;99076.22;;;18.92;42.39
29733;BME280;16643;43.158;25.302;2022-10-16T13:13:13;99078.59;;;18.79;42.35
29733;BME280;16643;43.158;25.302;2022-10-16T13:15:56;99074.63;;;18.71;42.85
29733;BME280;16643;43.158;25.302;2022-10-16T13:29:01;99067.75;;;18.85;42.89
29733;BME280;16643;43.158;25.302;2022-10-16T13:31:28;99066.75;;;18.88;42.43
29733;BME280;16643;43.158;25.302;2022-10-16T13:33:57;99072.78;;;18.73;42.52
29733;BME280;16643;43.158;25.302;2022-10-16T13:41:44;99074.09;;;18.81;41.21
29733;BME280;16643;43.158;25.302;2022-10-16T13:44:30;99085.50;;;18.63;42.14
29733;BME280;16643;43.158;25.302;2022-10-16T13:47:00;99099.44;;;18.46;42.58
29733;BME280;16643;43.158;25.302;2022-10-16T13:49:25;99096.66;;;18.49;42.41
29733;BME280;16643;43.158;25.302;2022-10-16T13:52:15;99109.84;;;18.49;42.37
29733;BME280;16643;43.158;25.302;2022-10-16T13:54:41;99097.00;;;18.23;42.73
29733;BME280;16643;43.158;25.302;2022-10-16T13:57:07;99104.88;;;18.23;42.89
29733;BME280;16643;43.158;25.302;2022-10-16T13:59:35;99082.53;;;18.13;43.08
29733;BME280;16643;43.158;25.302;2022-10-16T14:02:10;99096.94;;;18.25;43.74
29733;BME280;16643;43.158;25.302;2022-10-16T14:04:39;99079.91;;;18.13;43.71
29733;BME280;16643;43.158;25.302;2022-10-16T14:07:05;99087.56;;;18.18;43.84
29733;BME280;16643;43.158;25.302;2022-10-16T14:09:31;99108.94;;;18.30;43.08
29733;BME280;16643;43.158;25.302;2022-10-16T14:12:00;99111.28;;;18.18;43.38
29733;BME280;16643;43.158;25.302;2022-10-16T14:14:35;99085.66;;;18.02;44.08
29733;BME280;16643;43.158;25.302;2022-10-16T14:17:05;99097.47;;;18.12;44.28
29733;BME280;16643;43.158;25.302;2022-10-16T14:19:31;99082.66;;;18.10;44.99
29733;BME280;16643;43.158;25.302;2022-10-16T14:21:58;99093.22;;;17.90;45.40
29733;BME280;16643;43.158;25.302;2022-10-16T14:24:35;99104.34;;;17.96;46.04
29733;BME280;16643;43.158;25.302;2022-10-16T14:27:01;99110.25;;;18.01;45.55
29733;BME280;16643;43.158;25.302;2022-10-16T14:29:29;99110.59;;;17.94;46.03
29733;BME280;16643;43.158;25.302;2022-10-16T14:32:05;99095.94;;;17.88;46.59
29733;BME280;16643;43.158;25.302;2022-10-16T14:34:36;99103.22;;;18.02;46.45
29733;BME280;16643;43.158;25.302;2022-10-16T14:37:24;99112.66;;;18.06;46.41
29733;BME280;16643;43.158;25.302;2022-10-16T14:39:51;99094.69;;;17.76;46.34
29733;BME280;16643;43.158;25.302;2022-10-16T14:42:18;99109.03;;;17.69;46.76
29733;BME280;16643;43.158;25.302;2022-10-16T14:44:46;99106.53;;;17.66;46.90
29733;BME280;16643;43.158;25.302;2022-10-16T14:47:16;99120.59;;;17.65;47.26
29733;BME280;16643;43.158;25.302;2022-10-16T14:49:48;99116.91;;;17.69;46.97
29733;BME280;16643;43.158;25.302;2022-10-16T14:52:14;99124.22;;;17.61;47.27
29733;BME280;16643;43.158;25.302;2022-10-16T14:54:40;99107.50;;;17.42;46.72
29733;BME280;16643;43.158;25.302;2022-10-16T14:57:16;99129.69;;;17.57;47.03